createdAt,value
2022-08-11T00:00:59.729Z,2.30
2022-08-11T00:03:42.469Z,2.20
2022-08-11T00:06:13.970Z,2.28
2022-08-11T00:08:41.980Z,2.47
2022-08-11T00:11:11.868Z,2.30
2022-08-11T00:13:41.775Z,2.20
2022-08-11T00:16:18.953Z,2.08
2022-08-11T00:18:54.796Z,2.65
2022-08-11T00:22:03.084Z,2.30
2022-08-11T00:24:10.879Z,2.47
2022-08-11T00:26:37.643Z,2.17
2022-08-11T00:29:11.908Z,2.55
2022-08-11T00:31:43.808Z,2.30
2022-08-11T00:34:12.280Z,2.47
2022-08-11T00:36:45.677Z,2.30
2022-08-11T00:39:14.771Z,2.88
2022-08-11T00:42:06.910Z,2.50
2022-08-11T00:44:55.252Z,2.30
2022-08-11T00:47:35.470Z,2.60
2022-08-11T00:50:28.835Z,2.40
2022-08-11T00:53:37.115Z,2.42
2022-08-11T00:56:38.712Z,2.85
2022-08-11T00:59:35.198Z,2.42
2022-08-11T01:02:16.208Z,2.60
2022-08-11T01:05:15.115Z,2.40
2022-08-11T01:08:20.910Z,2.55
2022-08-11T01:11:15.053Z,2.55
2022-08-11T01:14:07.982Z,2.20
2022-08-11T01:17:29.637Z,2.60
2022-08-11T01:20:45.933Z,2.30
2022-08-11T01:23:56.520Z,2.53
2022-08-11T01:27:04.762Z,2.58
2022-08-11T01:30:19.764Z,2.47
2022-08-11T01:33:33.601Z,2.70
2022-08-11T01:36:22.110Z,2.70
2022-08-11T01:39:37.092Z,2.60
2022-08-11T01:42:45.165Z,2.58
2022-08-11T01:45:52.855Z,2.67
2022-08-11T01:48:53.973Z,2.85
2022-08-11T01:51:57.760Z,3.00
2022-08-11T01:54:33.019Z,3.13
2022-08-11T01:57:28.763Z,2.50
2022-08-11T02:00:12.911Z,3.28
2022-08-11T02:03:06.780Z,3.70
2022-08-11T02:06:01.681Z,3.35
2022-08-11T02:08:55.696Z,4.00
2022-08-11T02:11:35.090Z,3.92
2022-08-11T02:14:20.779Z,4.25
2022-08-11T02:17:07.783Z,3.80
2022-08-11T02:19:59.940Z,3.97
2022-08-11T02:23:09.629Z,3.60
2022-08-11T02:25:41.177Z,4.35
2022-08-11T02:28:23.973Z,4.00
2022-08-11T02:32:15.587Z,3.58
2022-08-11T02:34:32.358Z,3.40
2022-08-11T02:37:24.354Z,3.50
2022-08-11T02:40:03.402Z,3.03
2022-08-11T02:42:45.503Z,3.28
2022-08-11T02:45:12.400Z,3.50
2022-08-11T02:48:16.535Z,4.57
2022-08-11T02:51:03.386Z,4.60
2022-08-11T02:53:57.950Z,4.93
2022-08-11T02:56:52.049Z,5.28
2022-08-11T02:59:53.120Z,4.82
2022-08-11T03:02:50.213Z,4.72
2022-08-11T03:05:31.486Z,4.25
2022-08-11T03:08:22.625Z,4.30
2022-08-11T03:11:19.264Z,4.30
2022-08-11T03:14:20.382Z,4.10
2022-08-11T03:17:00.344Z,4.15
2022-08-11T03:19:44.654Z,4.00
2022-08-11T03:22:22.144Z,3.75
2022-08-11T03:24:53.744Z,4.22
2022-08-11T03:27:46.247Z,3.58
2022-08-11T03:30:17.700Z,4.13
2022-08-11T03:33:21.068Z,3.72
2022-08-11T03:36:10.247Z,4.15
2022-08-11T03:39:01.322Z,4.35
2022-08-11T03:42:01.513Z,4.20
2022-08-11T03:44:55.792Z,4.22
2022-08-11T03:47:52.568Z,3.90
2022-08-11T03:50:55.683Z,4.03
2022-08-11T03:54:06.544Z,4.30
2022-08-11T03:57:14.067Z,4.18
2022-08-11T04:00:11.184Z,3.78
2022-08-11T04:03:01.340Z,4.65
2022-08-11T04:06:07.337Z,4.32
2022-08-11T04:09:06.560Z,4.80
2022-08-11T04:12:01.701Z,4.50
2022-08-11T04:15:32.467Z,4.93
2022-08-11T04:18:43.909Z,4.07
2022-08-11T04:21:35.140Z,4.18
2022-08-11T04:24:35.991Z,4.35
2022-08-11T04:27:37.240Z,4.40
2022-08-11T04:30:30.954Z,4.70
2022-08-11T04:32:59.068Z,4.10
2022-08-11T04:35:51.003Z,4.45
2022-08-11T04:38:38.407Z,4.00
2022-08-11T04:41:20.891Z,3.83
2022-08-11T04:44:32.215Z,3.92
2022-08-11T04:48:01.892Z,3.92
2022-08-11T04:51:25.539Z,3.95
2022-08-11T04:54:42.094Z,4.00
2022-08-11T04:58:05.175Z,4.25
2022-08-11T05:01:04.825Z,4.18
2022-08-11T05:04:05.227Z,4.30
2022-08-11T05:07:08.575Z,4.20
2022-08-11T05:10:02.455Z,4.00
2022-08-11T05:13:22.795Z,3.85
2022-08-11T05:16:12.860Z,4.03
2022-08-11T05:19:10.200Z,4.75
2022-08-11T05:21:58.283Z,4.55
2022-08-11T05:24:49.659Z,4.10
2022-08-11T05:27:38.083Z,7.28
2022-08-11T05:30:25.835Z,3.88
2022-08-11T05:33:37.257Z,4.30
2022-08-11T05:36:34.281Z,4.43
2022-08-11T05:39:36.127Z,4.70
2022-08-11T05:42:29.911Z,4.38
2022-08-11T05:45:23.599Z,4.72
2022-08-11T05:48:09.553Z,4.20
2022-08-11T05:50:56.280Z,5.00
2022-08-11T05:53:42.842Z,4.32
2022-08-11T05:56:22.340Z,5.00
2022-08-11T05:58:53.109Z,4.75
2022-08-11T06:01:26.633Z,4.55
2022-08-11T06:04:14.269Z,4.30
2022-08-11T06:06:51.196Z,5.00
2022-08-11T06:09:30.975Z,5.13
2022-08-11T06:12:01.518Z,5.00
2022-08-11T06:14:28.759Z,4.65
2022-08-11T06:17:00.651Z,5.20
2022-08-11T06:19:41.873Z,4.65
2022-08-11T06:22:12.053Z,4.95
2022-08-11T06:24:42.419Z,4.82
2022-08-11T06:27:13.882Z,4.68
2022-08-11T06:29:55.221Z,4.72
2022-08-11T06:32:36.873Z,4.75
2022-08-11T06:35:19.372Z,5.03
2022-08-11T06:38:04.949Z,4.93
2022-08-11T06:40:43.252Z,4.82
2022-08-11T06:43:21.002Z,5.07
2022-08-11T06:45:55.228Z,4.60
2022-08-11T06:48:24.249Z,4.28
2022-08-11T06:51:14.389Z,4.72
2022-08-11T06:54:04.814Z,4.43
2022-08-11T06:57:26.467Z,4.03
2022-08-11T07:00:03.751Z,4.93
2022-08-11T07:03:01.249Z,4.10
2022-08-11T07:06:18.797Z,3.80
2022-08-11T07:09:38.019Z,3.85
2022-08-11T07:12:49.244Z,3.60
2022-08-11T07:16:10.667Z,4.32
2022-08-11T07:18:44.516Z,3.88
2022-08-11T07:22:01.665Z,3.80
2022-08-11T07:25:01.402Z,3.70
2022-08-11T07:27:54.683Z,4.60
2022-08-11T07:30:22.067Z,4.28
2022-08-11T07:32:52.554Z,3.75
2022-08-11T07:35:36.533Z,3.60
2022-08-11T07:38:11.677Z,3.50
2022-08-11T07:40:38.956Z,3.67
2022-08-11T07:43:07.072Z,4.15
2022-08-11T07:45:53.531Z,3.90
2022-08-11T07:48:39.031Z,3.80
2022-08-11T07:51:24.534Z,4.10
2022-08-11T07:53:58.515Z,4.13
2022-08-11T07:56:55.497Z,3.72
2022-08-11T08:00:02.722Z,3.92
2022-08-11T08:02:49.798Z,3.35
2022-08-11T08:05:37.242Z,3.80
2022-08-11T08:08:23.617Z,3.53
2022-08-11T08:11:09.611Z,3.55
2022-08-11T08:13:56.102Z,3.67
2022-08-11T08:16:41.492Z,5.30
2022-08-11T08:19:11.751Z,4.50
2022-08-11T08:21:39.288Z,4.40
2022-08-11T08:24:07.356Z,3.47
2022-08-11T08:26:53.253Z,3.88
2022-08-11T08:29:40.223Z,3.95
2022-08-11T08:32:08.680Z,3.70
2022-08-11T08:34:37.992Z,3.17
2022-08-11T08:37:16.171Z,3.00
2022-08-11T08:39:53.306Z,3.33
2022-08-11T08:42:41.757Z,3.00
2022-08-11T08:45:15.770Z,3.38
2022-08-11T08:47:47.858Z,3.00
2022-08-11T08:50:21.389Z,3.13
2022-08-11T08:53:00.172Z,3.08
2022-08-11T08:55:30.230Z,3.30
2022-08-11T08:58:00.599Z,3.15
2022-08-11T09:00:39.854Z,2.92
2022-08-11T09:03:29.566Z,3.20
2022-08-11T09:05:55.956Z,2.83
2022-08-11T09:08:24.124Z,2.90
2022-08-11T09:11:13.809Z,2.80
2022-08-11T09:13:44.230Z,3.15
2022-08-11T09:16:11.980Z,3.22
2022-08-11T09:18:44.543Z,2.85
2022-08-11T09:21:48.121Z,3.03
2022-08-11T09:24:26.312Z,2.80
2022-08-11T09:27:03.892Z,3.45
2022-08-11T09:29:32.938Z,2.95
2022-08-11T09:31:59.984Z,3.00
2022-08-11T09:34:27.479Z,3.10
2022-08-11T09:37:13.689Z,2.85
2022-08-11T09:40:19.171Z,3.00
2022-08-11T09:43:04.898Z,3.33
2022-08-11T09:45:39.885Z,3.60
2022-08-11T09:48:07.851Z,2.80
2022-08-11T09:50:35.110Z,3.00
2022-08-11T09:53:34.950Z,3.13
2022-08-11T09:55:53.210Z,2.95
2022-08-11T09:58:42.820Z,3.00
2022-08-11T10:01:27.131Z,2.80
2022-08-11T10:04:38.422Z,3.08
2022-08-11T10:07:06.925Z,2.67
2022-08-11T10:10:01.859Z,2.95
2022-08-11T10:12:36.049Z,2.92
2022-08-11T10:15:26.104Z,2.60
2022-08-11T10:18:21.292Z,3.20
2022-08-11T10:20:50.232Z,3.03
2022-08-11T10:23:36.308Z,2.83
2022-08-11T10:26:44.313Z,3.00
2022-08-11T10:29:35.283Z,3.13
2022-08-11T10:32:24.701Z,2.95
2022-08-11T10:35:01.281Z,3.10
2022-08-11T10:38:09.023Z,2.95
2022-08-11T10:40:22.599Z,2.80
2022-08-11T10:43:10.444Z,2.85
2022-08-11T10:45:57.311Z,2.85
2022-08-11T10:48:26.582Z,2.75
2022-08-11T10:51:12.800Z,2.90
2022-08-11T10:54:01.456Z,2.90
2022-08-11T10:56:49.034Z,2.63
2022-08-11T10:59:16.703Z,2.70
2022-08-11T11:01:45.020Z,2.78
2022-08-11T11:04:17.158Z,3.33
2022-08-11T11:07:05.817Z,2.65
2022-08-11T11:09:38.886Z,2.72
2022-08-11T11:12:45.583Z,2.50
2022-08-11T11:15:32.427Z,3.15
2022-08-11T11:18:06.222Z,3.15
2022-08-11T11:20:45.046Z,2.72
2022-08-11T11:23:36.626Z,2.70
2022-08-11T11:26:38.560Z,2.60
2022-08-11T11:29:25.146Z,2.83
2022-08-11T11:32:27.423Z,2.55
2022-08-11T11:35:21.839Z,2.50
2022-08-11T11:38:04.504Z,3.17
2022-08-11T11:40:33.385Z,2.75
2022-08-11T11:43:00.968Z,2.45
2022-08-11T11:45:28.721Z,2.90
2022-08-11T11:47:58.985Z,3.05
2022-08-11T11:50:38.583Z,2.97
2022-08-11T11:53:08.055Z,2.85
2022-08-11T11:55:35.773Z,2.60
2022-08-11T11:58:22.890Z,3.03
2022-08-11T12:01:09.401Z,2.83
2022-08-11T12:03:37.851Z,2.92
2022-08-11T12:06:06.868Z,3.63
2022-08-11T12:08:34.034Z,2.72
2022-08-11T12:11:25.031Z,2.70
2022-08-11T12:13:53.562Z,2.95
2022-08-11T12:16:34.295Z,2.65
2022-08-11T12:19:11.769Z,2.80
2022-08-11T12:22:00.865Z,3.05
2022-08-11T12:24:48.072Z,2.72
2022-08-11T12:27:24.187Z,4.72
2022-08-11T12:30:00.827Z,2.78
2022-08-11T12:32:31.233Z,2.92
2022-08-11T12:34:58.609Z,2.67
2022-08-11T12:37:30.628Z,2.70
2022-08-11T12:40:43.830Z,2.88
2022-08-11T12:43:37.783Z,2.70
2022-08-11T12:46:15.625Z,2.92
2022-08-11T12:49:05.328Z,3.22
2022-08-11T12:52:11.338Z,2.60
2022-08-11T12:55:11.036Z,4.07
2022-08-11T12:58:04.248Z,2.90
2022-08-11T13:00:50.895Z,2.63
2022-08-11T13:03:39.060Z,3.10
2022-08-11T13:06:06.681Z,2.70
2022-08-11T13:08:36.590Z,2.40
2022-08-11T13:11:22.654Z,2.47
2022-08-11T13:13:54.907Z,3.10
2022-08-11T13:16:27.979Z,2.90
2022-08-11T13:18:57.310Z,2.60
2022-08-11T13:21:24.420Z,2.20
2022-08-11T13:23:59.483Z,2.33
2022-08-11T13:26:47.136Z,2.20
2022-08-11T13:29:24.293Z,2.40
2022-08-11T13:31:53.655Z,2.40
2022-08-11T13:34:21.642Z,2.33
2022-08-11T13:36:52.400Z,2.22
2022-08-11T13:39:21.167Z,2.17
2022-08-11T13:41:51.220Z,2.45
2022-08-11T13:44:24.721Z,2.40
2022-08-11T13:46:53.415Z,2.30
2022-08-11T13:49:21.648Z,1.85
2022-08-11T13:51:48.724Z,2.22
2022-08-11T13:54:22.520Z,1.90
2022-08-11T13:56:52.876Z,2.20
2022-08-11T13:59:23.943Z,2.30
2022-08-11T14:02:21.286Z,2.47
2022-08-11T14:04:58.432Z,2.13
2022-08-11T14:07:34.443Z,2.30
2022-08-11T14:10:02.473Z,2.10
2022-08-11T14:12:53.911Z,2.58
2022-08-11T14:15:29.040Z,1.75
2022-08-11T14:18:08.098Z,1.90
2022-08-11T14:21:01.646Z,1.90
2022-08-11T14:23:43.418Z,1.90
2022-08-11T14:26:26.819Z,1.90
2022-08-11T14:28:59.641Z,2.10
2022-08-11T14:31:28.438Z,1.80
2022-08-11T14:34:00.264Z,1.95
2022-08-11T14:36:52.186Z,2.00
2022-08-11T14:39:24.679Z,2.00
2022-08-11T14:42:17.690Z,1.98
2022-08-11T14:45:12.641Z,1.90
2022-08-11T14:47:43.838Z,1.70
2022-08-11T14:50:23.099Z,1.70
2022-08-11T14:52:56.854Z,1.90
2022-08-11T14:55:44.150Z,1.60
2022-08-11T14:58:13.029Z,2.03
2022-08-11T15:00:42.018Z,1.77
2022-08-11T15:03:12.898Z,1.80
2022-08-11T15:05:55.782Z,1.75
2022-08-11T15:08:54.347Z,1.70
2022-08-11T15:11:47.469Z,1.92
2022-08-11T15:14:35.048Z,1.60
2022-08-11T15:17:08.359Z,1.80
2022-08-11T15:19:40.137Z,2.00
2022-08-11T15:22:28.323Z,1.80
2022-08-11T15:24:55.658Z,1.90
2022-08-11T15:27:42.544Z,1.58
2022-08-11T15:30:33.333Z,1.77
2022-08-11T15:33:25.454Z,2.10
2022-08-11T15:36:12.848Z,1.90
2022-08-11T15:38:49.220Z,1.83
2022-08-11T15:41:46.290Z,1.55
2022-08-11T15:45:01.478Z,1.60
2022-08-11T15:47:36.212Z,1.70
2022-08-11T15:50:16.670Z,1.77
2022-08-11T15:52:52.218Z,1.70
2022-08-11T15:55:21.155Z,1.75
2022-08-11T15:58:08.976Z,1.70
2022-08-11T16:00:59.018Z,1.70
2022-08-11T16:04:09.085Z,1.77
2022-08-11T16:06:49.585Z,1.52
2022-08-11T16:09:22.055Z,1.70
2022-08-11T16:11:49.921Z,1.70
2022-08-11T16:14:37.367Z,1.80
2022-08-11T16:17:06.861Z,1.85
2022-08-11T16:19:36.461Z,1.95
2022-08-11T16:22:07.523Z,1.80
2022-08-11T16:27:04.427Z,1.75
2022-08-11T16:27:26.308Z,1.80
2022-08-11T16:29:55.003Z,1.83
2022-08-11T16:32:23.785Z,1.80
2022-08-11T16:35:17.134Z,1.75
2022-08-11T16:38:04.128Z,1.90
2022-08-11T16:40:32.347Z,1.67
2022-08-11T16:43:18.247Z,1.70
2022-08-11T16:46:04.223Z,1.50
2022-08-11T16:48:36.272Z,1.80
2022-08-11T16:51:06.064Z,1.70
2022-08-11T16:54:03.202Z,1.73
2022-08-11T16:56:29.937Z,1.67
2022-08-11T16:59:16.196Z,1.60
2022-08-11T17:01:52.905Z,1.92
2022-08-11T17:04:55.457Z,1.70
2022-08-11T17:07:43.450Z,1.55
2022-08-11T17:10:50.950Z,1.70
2022-08-11T17:13:25.799Z,1.60
2022-08-11T17:16:06.538Z,1.90
2022-08-11T17:18:59.346Z,2.00
2022-08-11T17:22:02.613Z,1.60
2022-08-11T17:24:31.553Z,2.00
2022-08-11T17:26:59.594Z,1.65
2022-08-11T17:29:54.755Z,1.60
2022-08-11T17:33:01.304Z,1.75
2022-08-11T17:35:33.197Z,1.67
2022-08-11T17:38:16.807Z,1.80
2022-08-11T17:41:13.540Z,2.13
2022-08-11T17:44:10.332Z,1.70
2022-08-11T17:46:57.897Z,1.73
2022-08-11T17:49:27.033Z,1.95
2022-08-11T17:52:13.336Z,1.90
2022-08-11T17:55:00.244Z,1.88
2022-08-11T17:57:48.854Z,1.88
2022-08-11T18:00:16.763Z,1.80
2022-08-11T18:03:03.239Z,2.13
2022-08-11T18:05:33.637Z,1.80
2022-08-11T18:08:24.508Z,2.00
2022-08-11T18:11:11.398Z,2.00
2022-08-11T18:14:03.745Z,2.03
2022-08-11T18:16:49.183Z,1.80
2022-08-11T18:19:34.723Z,1.80
2022-08-11T18:22:28.214Z,2.00
2022-08-11T18:25:25.810Z,2.50
2022-08-11T18:28:14.413Z,1.80
2022-08-11T18:31:05.309Z,1.95
2022-08-11T18:34:16.847Z,2.20
2022-08-11T18:37:20.020Z,2.00
2022-08-11T18:40:15.288Z,2.97
2022-08-11T18:43:03.040Z,2.60
2022-08-11T18:45:51.289Z,2.33
2022-08-11T18:48:54.963Z,2.53
2022-08-11T18:51:42.326Z,2.60
2022-08-11T18:54:29.982Z,2.70
2022-08-11T18:57:18.929Z,2.80
2022-08-11T19:00:05.809Z,2.50
2022-08-11T19:02:53.929Z,2.38
2022-08-11T19:06:35.579Z,2.65
2022-08-11T19:08:49.946Z,2.35
2022-08-11T19:11:42.437Z,2.53
2022-08-11T19:14:31.503Z,2.72
2022-08-11T19:17:44.281Z,3.10
2022-08-11T19:20:29.221Z,2.85
2022-08-11T19:23:16.094Z,3.20
2022-08-11T19:26:06.127Z,2.75
2022-08-11T19:28:52.871Z,2.63
2022-08-11T19:31:43.849Z,2.78
2022-08-11T19:34:41.327Z,2.67
2022-08-11T19:37:27.890Z,2.60
2022-08-11T19:40:16.209Z,2.55
2022-08-11T19:43:03.263Z,2.45
2022-08-11T19:45:52.204Z,2.55
2022-08-11T19:48:40.624Z,2.53
2022-08-11T19:51:27.607Z,2.63
2022-08-11T19:54:13.647Z,2.63
2022-08-11T19:57:00.768Z,2.60
2022-08-11T19:59:51.012Z,2.92
2022-08-11T20:02:36.397Z,3.10
2022-08-11T20:05:23.551Z,3.42
2022-08-11T20:08:09.670Z,3.33
2022-08-11T20:10:55.721Z,3.40
2022-08-11T20:13:44.260Z,3.50
2022-08-11T20:16:32.338Z,2.90
2022-08-11T20:19:25.921Z,3.20
2022-08-11T20:22:25.927Z,3.05
2022-08-11T20:25:12.895Z,3.40
2022-08-11T20:28:00.463Z,3.60
2022-08-11T20:30:48.587Z,3.35
2022-08-11T20:33:38.497Z,3.40
2022-08-11T20:36:24.462Z,3.40
2022-08-11T20:39:11.004Z,3.08
2022-08-11T20:41:59.167Z,3.22
2022-08-11T20:44:46.099Z,2.67
2022-08-11T20:47:56.461Z,3.28
2022-08-11T20:50:41.086Z,2.70
2022-08-11T20:53:27.753Z,2.63
2022-08-11T20:56:14.268Z,2.70
2022-08-11T20:59:14.400Z,2.58
2022-08-11T21:02:04.348Z,2.80
2022-08-11T21:04:54.075Z,2.42
2022-08-11T21:07:43.598Z,2.60
2022-08-11T21:10:44.559Z,2.70
2022-08-11T21:13:33.104Z,2.65
2022-08-11T21:16:26.002Z,2.50
2022-08-11T21:19:18.763Z,2.78
2022-08-11T21:22:28.150Z,2.92
2022-08-11T21:25:15.978Z,2.80
2022-08-11T21:28:02.852Z,2.70
2022-08-11T21:30:49.271Z,2.88
2022-08-11T21:33:35.836Z,2.55
2022-08-11T21:36:21.866Z,3.15
2022-08-11T21:39:08.460Z,2.85
2022-08-11T21:41:54.503Z,3.00
2022-08-11T21:44:40.827Z,2.90
2022-08-11T21:47:43.006Z,2.95
2022-08-11T21:50:29.528Z,2.72
2022-08-11T21:53:16.703Z,2.92
2022-08-11T21:56:03.184Z,3.20
2022-08-11T21:58:49.815Z,3.25
2022-08-11T22:01:36.301Z,3.33
2022-08-11T22:04:23.556Z,3.30
2022-08-11T22:07:09.967Z,3.08
2022-08-11T22:09:56.452Z,3.40
2022-08-11T22:12:45.038Z,3.45
2022-08-11T22:15:31.713Z,3.25
2022-08-11T22:18:19.154Z,3.03
2022-08-11T22:21:04.649Z,3.35
2022-08-11T22:23:54.547Z,3.88
2022-08-11T22:26:41.813Z,3.42
2022-08-11T22:29:41.302Z,4.07
2022-08-11T22:32:38.002Z,4.05
2022-08-11T22:35:24.821Z,4.05
2022-08-11T22:38:15.842Z,3.67
2022-08-11T22:41:01.226Z,4.00
2022-08-11T22:43:46.772Z,3.88
2022-08-11T22:46:34.388Z,3.45
2022-08-11T22:49:21.047Z,3.90
2022-08-11T22:52:06.330Z,3.90
2022-08-11T22:54:52.995Z,3.80
2022-08-11T22:57:38.869Z,3.80
2022-08-11T23:00:24.836Z,3.83
2022-08-11T23:03:37.841Z,4.28
2022-08-11T23:06:23.756Z,4.32
2022-08-11T23:09:10.305Z,4.80
2022-08-11T23:12:07.443Z,4.55
2022-08-11T23:14:56.779Z,4.28
2022-08-11T23:17:42.692Z,4.47
2022-08-11T23:20:38.590Z,4.50
2022-08-11T23:23:36.264Z,4.20
2022-08-11T23:26:22.434Z,4.13
2022-08-11T23:29:07.806Z,4.00
2022-08-11T23:31:54.681Z,3.60
2022-08-11T23:35:03.670Z,3.92
2022-08-11T23:37:50.586Z,3.60
2022-08-11T23:40:35.929Z,3.30
2022-08-11T23:43:21.404Z,3.45
2022-08-11T23:46:06.883Z,3.40
2022-08-11T23:48:54.806Z,3.40
2022-08-11T23:51:41.608Z,3.28
2022-08-11T23:54:29.984Z,3.42
2022-08-11T23:57:17.030Z,3.15
